createdAt,value
2024-04-04T00:00:34.024Z,94770.00
2024-04-04T00:01:33.887Z,94768.00
2024-04-04T00:02:33.935Z,94770.00
2024-04-04T00:03:33.926Z,94775.00
2024-04-04T00:04:33.947Z,94773.00
2024-04-04T00:05:34.015Z,94774.00
2024-04-04T00:06:34.013Z,94773.00
2024-04-04T00:07:34.139Z,94774.00
2024-04-04T00:08:34.034Z,94775.00
2024-04-04T00:09:34.042Z,94778.00
2024-04-04T00:10:34.175Z,94779.00
2024-04-04T00:11:34.104Z,94776.00
2024-04-04T00:12:34.168Z,94776.00
2024-04-04T00:13:34.182Z,94776.00
2024-04-04T00:14:34.174Z,94773.00
2024-04-04T00:15:34.188Z,94773.00
2024-04-04T00:16:34.197Z,94774.00
2024-04-04T00:17:34.208Z,94773.00
2024-04-04T00:18:34.257Z,94773.00
2024-04-04T00:19:34.261Z,94774.00
2024-04-04T00:20:34.388Z,94777.00
2024-04-04T00:21:34.267Z,94779.00
2024-04-04T00:22:34.285Z,94779.00
2024-04-04T00:23:34.445Z,94779.00
2024-04-04T00:24:34.300Z,94779.00
2024-04-04T00:25:34.355Z,94779.00
2024-04-04T00:26:34.361Z,94780.00
2024-04-04T00:27:34.423Z,94782.00
2024-04-04T00:28:34.385Z,94780.00
2024-04-04T00:29:34.434Z,94780.00
2024-04-04T00:30:34.388Z,94780.00
2024-04-04T00:31:34.404Z,94777.00
2024-04-04T00:32:34.413Z,94775.00
2024-04-04T00:33:34.523Z,94774.00
2024-04-04T00:34:34.466Z,94769.00
2024-04-04T00:35:34.531Z,94771.00
2024-04-04T00:36:34.535Z,94770.00
2024-04-04T00:37:34.591Z,94768.00
2024-04-04T00:38:34.600Z,94768.00
2024-04-04T00:39:34.667Z,94767.00
2024-04-04T00:40:34.671Z,94768.00
2024-04-04T00:41:34.775Z,94766.00
2024-04-04T00:42:34.752Z,94765.00
2024-04-04T00:43:34.832Z,94766.00
2024-04-04T00:44:34.788Z,94766.00
2024-04-04T00:45:34.807Z,94769.00
2024-04-04T00:46:34.802Z,94769.00
2024-04-04T00:47:34.811Z,94769.00
2024-04-04T00:48:35.384Z,94769.00
2024-04-04T00:49:34.878Z,94771.00
2024-04-04T00:50:34.882Z,94775.00
2024-04-04T00:51:34.884Z,94773.00
2024-04-04T00:52:34.900Z,94776.00
2024-04-04T00:53:35.045Z,94778.00
2024-04-04T00:54:34.964Z,94779.00
2024-04-04T00:55:34.975Z,94781.00
2024-04-04T00:56:34.974Z,94785.00
2024-04-04T00:57:34.975Z,94784.00
2024-04-04T00:58:34.995Z,94787.00
2024-04-04T00:59:35.049Z,94790.00
2024-04-04T01:00:35.088Z,94786.00
2024-04-04T01:01:35.006Z,94784.00
2024-04-04T01:02:35.066Z,94781.00
2024-04-04T01:03:35.075Z,94777.00
2024-04-04T01:04:35.080Z,94776.00
2024-04-04T01:05:35.089Z,94776.00
2024-04-04T01:06:35.141Z,94778.00
2024-04-04T01:07:35.149Z,94777.00
2024-04-04T01:08:35.137Z,94780.00
2024-04-04T01:09:35.191Z,94781.00
2024-04-04T01:10:35.183Z,94785.00
2024-04-04T01:11:35.211Z,94784.00
2024-04-04T01:12:35.310Z,94788.00
2024-04-04T01:13:35.263Z,94788.00
2024-04-04T01:14:35.323Z,94788.00
2024-04-04T01:15:35.266Z,94789.00
2024-04-04T01:16:35.318Z,94793.00
2024-04-04T01:17:35.343Z,94791.00
2024-04-04T01:18:35.383Z,94791.00
2024-04-04T01:19:35.340Z,94792.00
2024-04-04T01:20:35.354Z,94795.00
2024-04-04T01:21:35.500Z,94796.00
2024-04-04T01:22:35.414Z,94799.00
2024-04-04T01:23:35.388Z,94802.00
2024-04-04T01:24:35.481Z,94802.00
2024-04-04T01:25:35.431Z,94800.00
2024-04-04T01:26:35.496Z,94801.00
2024-04-04T01:27:35.488Z,94799.00
2024-04-04T01:28:35.461Z,94800.00
2024-04-04T01:29:35.506Z,94800.00
2024-04-04T01:30:35.515Z,94801.00
2024-04-04T01:31:35.523Z,94799.00
2024-04-04T01:32:35.540Z,94802.00
2024-04-04T01:33:35.538Z,94803.00
2024-04-04T01:34:35.547Z,94804.00
2024-04-04T01:35:35.553Z,94808.00
2024-04-04T01:36:35.566Z,94810.00
2024-04-04T01:37:35.573Z,94811.00
2024-04-04T01:38:35.584Z,94812.00
2024-04-04T01:39:35.652Z,94810.00
2024-04-04T01:40:35.637Z,94812.00
2024-04-04T01:41:35.620Z,94815.00
2024-04-04T01:42:35.651Z,94819.00
2024-04-04T01:43:35.732Z,94819.00
2024-04-04T01:44:35.717Z,94823.00
2024-04-04T01:45:35.740Z,94823.00
2024-04-04T01:46:35.745Z,94824.00
2024-04-04T01:47:35.733Z,94824.00
2024-04-04T01:48:35.762Z,94827.00
2024-04-04T01:49:35.908Z,94827.00
2024-04-04T01:50:35.799Z,94829.00
2024-04-04T01:51:35.921Z,94831.00
2024-04-04T01:52:35.984Z,94831.00
2024-04-04T01:53:35.898Z,94830.00
2024-04-04T01:54:35.890Z,94827.00
2024-04-04T01:55:35.890Z,94832.00
2024-04-04T01:56:35.902Z,94830.00
2024-04-04T01:57:35.930Z,94828.00
2024-04-04T01:58:35.921Z,94827.00
2024-04-04T01:59:35.971Z,94825.00
2024-04-04T02:00:36.071Z,94825.00
2024-04-04T02:01:36.137Z,94826.00
2024-04-04T02:02:36.073Z,94825.00
2024-04-04T02:03:36.002Z,94827.00
2024-04-04T02:04:36.119Z,94828.00
2024-04-04T02:05:36.061Z,94829.00
2024-04-04T02:06:36.059Z,94826.00
2024-04-04T02:07:36.079Z,94831.00
2024-04-04T02:08:36.088Z,94831.00
2024-04-04T02:09:36.096Z,94831.00
2024-04-04T02:10:36.112Z,94831.00
2024-04-04T02:11:36.128Z,94831.00
2024-04-04T02:12:36.160Z,94829.00
2024-04-04T02:13:36.321Z,94822.00
2024-04-04T02:14:36.154Z,94821.00
2024-04-04T02:15:36.184Z,94819.00
2024-04-04T02:16:36.261Z,94816.00
2024-04-04T02:17:36.251Z,94815.00
2024-04-04T02:18:36.269Z,94818.00
2024-04-04T02:19:36.317Z,94817.00
2024-04-04T02:20:36.330Z,94818.00
2024-04-04T02:21:36.331Z,94817.00
2024-04-04T02:22:36.334Z,94820.00
2024-04-04T02:23:36.443Z,94819.00
2024-04-04T02:24:36.400Z,94821.00
2024-04-04T02:25:36.461Z,94820.00
2024-04-04T02:26:36.516Z,94824.00
2024-04-04T02:27:36.475Z,94820.00
2024-04-04T02:28:36.515Z,94820.00
2024-04-04T02:29:36.644Z,94819.00
2024-04-04T02:30:36.572Z,94817.00
2024-04-04T02:31:36.546Z,94818.00
2024-04-04T02:32:36.570Z,94817.00
2024-04-04T02:33:36.606Z,94819.00
2024-04-04T02:34:36.697Z,94818.00
2024-04-04T02:36:31.663Z,94818.00
2024-04-04T02:37:31.321Z,94817.00
2024-04-04T02:38:31.326Z,94815.00
2024-04-04T02:39:31.290Z,94815.00
2024-04-04T02:40:31.294Z,94813.00
2024-04-04T02:41:31.289Z,94809.00
2024-04-04T02:42:31.403Z,94806.00
2024-04-04T02:43:31.304Z,94805.00
2024-04-04T02:44:31.304Z,94808.00
2024-04-04T02:45:31.248Z,94807.00
2024-04-04T02:46:31.261Z,94808.00
2024-04-04T02:47:31.299Z,94811.00
2024-04-04T02:48:31.289Z,94810.00
2024-04-04T02:49:31.301Z,94814.00
2024-04-04T02:50:31.382Z,94817.00
2024-04-04T02:51:31.316Z,94818.00
2024-04-04T02:52:31.281Z,94816.00
2024-04-04T02:53:31.371Z,94815.00
2024-04-04T02:54:31.311Z,94814.00
2024-04-04T02:55:31.325Z,94816.00
2024-04-04T02:56:31.296Z,94813.00
2024-04-04T02:57:31.307Z,94813.00
2024-04-04T02:58:31.282Z,94811.00
2024-04-04T02:59:31.424Z,94809.00
2024-04-04T03:00:31.330Z,94809.00
2024-04-04T03:01:31.349Z,94807.00
2024-04-04T03:02:31.415Z,94808.00
2024-04-04T03:03:31.445Z,94808.00
2024-04-04T03:04:31.379Z,94810.00
2024-04-04T03:05:32.814Z,94812.00
2024-04-04T03:06:31.351Z,94811.00
2024-04-04T03:07:31.368Z,94811.00
2024-04-04T03:08:31.321Z,94809.00
2024-04-04T03:09:31.339Z,94805.00
2024-04-04T03:10:31.315Z,94808.00
2024-04-04T03:11:31.346Z,94809.00
2024-04-04T03:12:31.660Z,94811.00
2024-04-04T03:13:31.316Z,94813.00
2024-04-04T03:14:31.326Z,94815.00
2024-04-04T03:15:31.436Z,94818.00
2024-04-04T03:16:31.332Z,94817.00
2024-04-04T03:17:31.337Z,94819.00
2024-04-04T03:18:31.344Z,94818.00
2024-04-04T03:19:31.360Z,94820.00
2024-04-04T03:20:31.530Z,94820.00
2024-04-04T03:21:31.450Z,94820.00
2024-04-04T03:22:31.476Z,94819.00
2024-04-04T03:23:31.475Z,94817.00
2024-04-04T03:24:31.591Z,94820.00
2024-04-04T03:25:31.517Z,94822.00
2024-04-04T03:26:31.522Z,94821.00
2024-04-04T03:27:31.641Z,94826.00
2024-04-04T03:28:31.615Z,94830.00
2024-04-04T03:29:31.665Z,94831.00
2024-04-04T03:30:31.642Z,94828.00
2024-04-04T03:31:31.740Z,94830.00
2024-04-04T03:32:31.759Z,94831.00
2024-04-04T03:33:31.771Z,94831.00
2024-04-04T03:34:31.861Z,94833.00
2024-04-04T03:35:31.886Z,94834.00
2024-04-04T03:36:31.998Z,94832.00
2024-04-04T03:37:31.992Z,94828.00
2024-04-04T03:38:31.999Z,94825.00
2024-04-04T03:39:32.117Z,94825.00
2024-04-04T03:40:32.185Z,94825.00
2024-04-04T03:41:32.120Z,94828.00
2024-04-04T03:42:32.380Z,94829.00
2024-04-04T03:43:32.202Z,94829.00
2024-04-04T03:44:32.238Z,94831.00
2024-04-04T03:45:32.249Z,94831.00
2024-04-04T03:46:32.518Z,94832.00
2024-04-04T03:47:32.384Z,94831.00
2024-04-04T03:48:32.428Z,94828.00
2024-04-04T03:49:32.491Z,94828.00
2024-04-04T03:50:32.592Z,94828.00
2024-04-04T03:51:32.970Z,94831.00
2024-04-04T03:52:32.619Z,94834.00
2024-04-04T03:53:32.807Z,94834.00
2024-04-04T03:54:32.642Z,94831.00
2024-04-04T03:55:32.808Z,94828.00
2024-04-04T03:56:32.830Z,94825.00
2024-04-04T03:57:32.729Z,94821.00
2024-04-04T03:58:32.826Z,94820.00
2024-04-04T03:59:32.870Z,94822.00
2024-04-04T04:00:32.778Z,94827.00
2024-04-04T04:01:32.801Z,94851.00
2024-04-04T04:02:32.931Z,94883.00
2024-04-04T04:03:32.876Z,94886.00
2024-04-04T04:04:32.895Z,94887.00
2024-04-04T04:05:32.992Z,94886.00
2024-04-04T04:06:33.495Z,94889.00
2024-04-04T04:07:33.510Z,94893.00
2024-04-04T04:08:32.917Z,94891.00
2024-04-04T04:09:33.023Z,94895.00
2024-04-04T04:10:33.035Z,94895.00
2024-04-04T04:11:33.040Z,94898.00
2024-04-04T04:12:33.080Z,94897.00
2024-04-04T04:13:33.255Z,94895.00
2024-04-04T04:14:33.158Z,94897.00
2024-04-04T04:15:33.172Z,94894.00
2024-04-04T04:16:33.142Z,94892.00
2024-04-04T04:17:33.186Z,94893.00
2024-04-04T04:18:33.383Z,94894.00
2024-04-04T04:19:33.226Z,94898.00
2024-04-04T04:20:33.211Z,94900.00
2024-04-04T04:21:33.276Z,94899.00
2024-04-04T04:22:33.340Z,94901.00
2024-04-04T04:23:33.392Z,94901.00
2024-04-04T04:24:33.461Z,94901.00
2024-04-04T04:25:33.400Z,94902.00
2024-04-04T04:26:33.451Z,94902.00
2024-04-04T04:27:33.466Z,94899.00
2024-04-04T04:28:33.545Z,94901.00
2024-04-04T04:29:33.594Z,94898.00
2024-04-04T04:30:40.857Z,94846.00
2024-04-04T04:31:48.151Z,94848.00
2024-04-04T04:32:48.144Z,94848.00
2024-04-04T04:33:48.154Z,94847.00
2024-04-04T04:34:48.148Z,94850.00
2024-04-04T04:35:48.260Z,94851.00
2024-04-04T04:36:48.264Z,94854.00
2024-04-04T04:37:48.116Z,94852.00
2024-04-04T04:38:48.196Z,94848.00
2024-04-04T04:39:48.147Z,94847.00
2024-04-04T04:40:48.168Z,94841.00
2024-04-04T04:41:48.230Z,94839.00
2024-04-04T04:42:48.193Z,94840.00
2024-04-04T04:43:48.218Z,94840.00
2024-04-04T04:44:48.218Z,94839.00
2024-04-04T04:45:48.183Z,94842.00
2024-04-04T04:46:48.238Z,94840.00
2024-04-04T04:47:48.137Z,94840.00
2024-04-04T04:48:48.250Z,94839.00
2024-04-04T04:49:48.159Z,94842.00
2024-04-04T04:50:48.217Z,94843.00
2024-04-04T04:51:48.277Z,94844.00
2024-04-04T04:52:48.249Z,94845.00
2024-04-04T04:53:48.171Z,94842.00
2024-04-04T04:54:48.181Z,94843.00
2024-04-04T04:55:48.148Z,94840.00
2024-04-04T04:56:48.214Z,94842.00
2024-04-04T04:57:48.233Z,94846.00
2024-04-04T04:58:48.274Z,94836.00
2024-04-04T04:59:48.416Z,94839.00
2024-04-04T05:00:48.221Z,94841.00
2024-04-04T05:01:48.197Z,94841.00
2024-04-04T05:02:48.136Z,94840.00
2024-04-04T05:03:48.655Z,94840.00
2024-04-04T05:04:48.257Z,94842.00
2024-04-04T05:05:48.164Z,94841.00
2024-04-04T05:06:48.171Z,94843.00
2024-04-04T05:07:48.182Z,94845.00
2024-04-04T05:08:48.188Z,94848.00
2024-04-04T05:09:48.144Z,94852.00
2024-04-04T05:10:48.207Z,94851.00
2024-04-04T05:11:48.296Z,94852.00
2024-04-04T05:12:48.186Z,94854.00
2024-04-04T05:13:48.205Z,94856.00
2024-04-04T05:14:48.199Z,94857.00
2024-04-04T05:15:48.204Z,94858.00
2024-04-04T05:16:48.296Z,94861.00
2024-04-04T05:17:48.193Z,94864.00
2024-04-04T05:18:48.245Z,94863.00
2024-04-04T05:19:48.267Z,94866.00
2024-04-04T05:20:48.272Z,94865.00
2024-04-04T05:21:48.228Z,94861.00
2024-04-04T05:22:48.236Z,94860.00
2024-04-04T05:23:48.174Z,94864.00
2024-04-04T05:24:48.191Z,94867.00
2024-04-04T05:25:48.199Z,94866.00
2024-04-04T05:26:48.205Z,94864.00
2024-04-04T05:27:48.232Z,94865.00
2024-04-04T05:28:48.231Z,94865.00
2024-04-04T05:29:48.222Z,94866.00
2024-04-04T05:30:48.189Z,94866.00
2024-04-04T05:31:48.244Z,94867.00
2024-04-04T05:32:48.541Z,94872.00
2024-04-04T05:33:48.203Z,94874.00
2024-04-04T05:34:48.211Z,94871.00
2024-04-04T05:35:48.243Z,94873.00
2024-04-04T05:36:48.239Z,94872.00
2024-04-04T05:37:48.391Z,94870.00
2024-04-04T05:38:48.426Z,94870.00
2024-04-04T05:39:49.309Z,94869.00
2024-04-04T05:40:49.425Z,94870.00
2024-04-04T05:41:48.530Z,94873.00
2024-04-04T05:42:48.432Z,94874.00
2024-04-04T05:43:49.651Z,94875.00
2024-04-04T05:44:48.437Z,94875.00
2024-04-04T05:45:48.431Z,94878.00
2024-04-04T05:46:48.444Z,94878.00
2024-04-04T05:47:48.501Z,94875.00
2024-04-04T05:48:49.399Z,94871.00
2024-04-04T05:49:48.519Z,94869.00
2024-04-04T05:50:49.858Z,94868.00
2024-04-04T05:51:48.570Z,94869.00
2024-04-04T05:52:51.467Z,94870.00
2024-04-04T05:53:49.205Z,94871.00
2024-04-04T05:54:48.963Z,94871.00
2024-04-04T05:55:48.754Z,94873.00
2024-04-04T05:56:48.575Z,94871.00
2024-04-04T05:57:48.528Z,94871.00
2024-04-04T05:58:48.796Z,94872.00
2024-04-04T05:59:48.942Z,94874.00
2024-04-04T06:00:48.774Z,94876.00
2024-04-04T06:01:52.945Z,94879.00
2024-04-04T06:02:48.971Z,94882.00
2024-04-04T06:03:48.902Z,94882.00
2024-04-04T06:04:49.593Z,94939.00
2024-04-04T06:05:51.351Z,94938.00
2024-04-04T06:06:48.592Z,94941.00
2024-04-04T06:07:54.789Z,94888.00
2024-04-04T06:08:48.597Z,94889.00
2024-04-04T06:09:51.174Z,94887.00
2024-04-04T06:10:48.555Z,94888.00
2024-04-04T06:11:49.380Z,94888.00
2024-04-04T06:12:48.929Z,94887.00
2024-04-04T06:13:48.574Z,94883.00
2024-04-04T06:14:48.878Z,94883.00
2024-04-04T06:15:48.604Z,94880.00
2024-04-04T06:16:48.752Z,94879.00
2024-04-04T06:17:49.695Z,94879.00
2024-04-04T06:18:48.961Z,94880.00
2024-04-04T06:19:48.733Z,94880.00
2024-04-04T06:20:50.620Z,94881.00
2024-04-04T06:21:48.576Z,94879.00
2024-04-04T06:22:48.659Z,94881.00
2024-04-04T06:23:52.009Z,94880.00
2024-04-04T06:24:50.423Z,94878.00
2024-04-04T06:25:48.618Z,94879.00
2024-04-04T06:26:48.564Z,94879.00
2024-04-04T06:27:48.799Z,94880.00
2024-04-04T06:28:51.766Z,94879.00
2024-04-04T06:29:48.687Z,94877.00
2024-04-04T06:30:48.847Z,94877.00
2024-04-04T06:31:51.229Z,94875.00
2024-04-04T06:32:51.215Z,94876.00
2024-04-04T06:33:50.448Z,94876.00
2024-04-04T06:34:48.823Z,94876.00
2024-04-04T06:35:48.806Z,94878.00
2024-04-04T06:36:49.246Z,94877.00
2024-04-04T06:37:48.847Z,94876.00
2024-04-04T06:38:48.804Z,94873.00
2024-04-04T06:39:49.079Z,94872.00
2024-04-04T06:40:48.805Z,94869.00
2024-04-04T06:41:48.818Z,94866.00
2024-04-04T06:42:52.436Z,94864.00
2024-04-04T06:43:48.828Z,94865.00
2024-04-04T06:44:49.373Z,94867.00
2024-04-04T06:45:49.366Z,94923.00
2024-04-04T06:46:48.810Z,94921.00
2024-04-04T06:47:49.336Z,94920.00
2024-04-04T06:48:49.796Z,94922.00
2024-04-04T06:49:48.996Z,94924.00
2024-04-04T06:50:52.724Z,94922.00
2024-04-04T06:51:49.805Z,94923.00
2024-04-04T06:52:48.916Z,94922.00
2024-04-04T06:53:49.358Z,94922.00
2024-04-04T06:54:48.817Z,94920.00
2024-04-04T06:55:48.824Z,94922.00
2024-04-04T06:56:54.170Z,94923.00
2024-04-04T06:58:57.634Z,94924.00
2024-04-04T06:59:57.953Z,94924.00
2024-04-04T07:00:57.497Z,94922.00
2024-04-04T07:02:02.627Z,94922.00
2024-04-04T07:02:57.619Z,94923.00
2024-04-04T07:03:59.612Z,94921.00
2024-04-04T07:04:57.578Z,94921.00
2024-04-04T07:05:57.535Z,94923.00
2024-04-04T07:06:57.647Z,94925.00
2024-04-04T07:07:57.511Z,94922.00
2024-04-04T07:08:57.515Z,94921.00
2024-04-04T07:09:57.507Z,94923.00
2024-04-04T07:10:57.838Z,94920.00
2024-04-04T07:12:00.155Z,94921.00
2024-04-04T07:12:57.586Z,94919.00
2024-04-04T07:13:57.545Z,94918.00
2024-04-04T07:14:57.703Z,94917.00
2024-04-04T07:15:58.203Z,94915.00
2024-04-04T07:16:57.760Z,94915.00
2024-04-04T07:17:57.511Z,94915.00
2024-04-04T07:18:57.754Z,94915.00
2024-04-04T07:19:58.309Z,94914.00
2024-04-04T07:20:57.648Z,94912.00
2024-04-04T07:21:58.367Z,94911.00
2024-04-04T07:23:04.268Z,94912.00
2024-04-04T07:23:57.617Z,94911.00
2024-04-04T07:24:58.861Z,94912.00
2024-04-04T07:25:57.542Z,94911.00
2024-04-04T07:26:58.191Z,94910.00
2024-04-04T07:28:07.580Z,94910.00
2024-04-04T07:28:59.440Z,94907.00
2024-04-04T07:29:58.764Z,94912.00
2024-04-04T07:30:57.608Z,94910.00
2024-04-04T07:31:58.195Z,94917.00
2024-04-04T07:32:57.528Z,94916.00
2024-04-04T07:33:57.518Z,94860.00
2024-04-04T07:34:58.269Z,94859.00
2024-04-04T07:35:57.536Z,94860.00
2024-04-04T07:36:57.554Z,94859.00
2024-04-04T07:37:57.625Z,94910.00
2024-04-04T07:38:57.553Z,94910.00
2024-04-04T07:39:57.772Z,94911.00
2024-04-04T07:40:57.566Z,94912.00
2024-04-04T07:41:57.588Z,94915.00
2024-04-04T07:42:58.140Z,94916.00
2024-04-04T07:43:57.599Z,94864.00
2024-04-04T07:44:58.397Z,94864.00
2024-04-04T07:45:57.714Z,94867.00
2024-04-04T07:46:57.739Z,94864.00
2024-04-04T07:47:57.769Z,94861.00
2024-04-04T07:48:57.774Z,94860.00
2024-04-04T07:49:57.953Z,94861.00
2024-04-04T07:50:58.725Z,94859.00
2024-04-04T07:51:57.951Z,94860.00
2024-04-04T07:52:58.134Z,94861.00
2024-04-04T07:53:58.071Z,94860.00
2024-04-04T07:54:58.230Z,94860.00
2024-04-04T07:55:58.767Z,94861.00
2024-04-04T07:56:58.299Z,94862.00
2024-04-04T07:58:00.169Z,94862.00
2024-04-04T07:58:58.364Z,94862.00
2024-04-04T07:59:58.688Z,94862.00
2024-04-04T08:00:58.380Z,94863.00
2024-04-04T08:01:58.646Z,94861.00
2024-04-04T08:02:58.497Z,94859.00
2024-04-04T08:03:59.515Z,94860.00
2024-04-04T08:04:59.376Z,94858.00
2024-04-04T08:05:58.553Z,94854.00
2024-04-04T08:06:58.672Z,94852.00
2024-04-04T08:07:58.640Z,94851.00
2024-04-04T08:08:58.595Z,94850.00
2024-04-04T08:09:58.548Z,94848.00
2024-04-04T08:10:58.602Z,94849.00
2024-04-04T08:11:59.175Z,94849.00
2024-04-04T08:12:58.601Z,94848.00
2024-04-04T08:13:58.596Z,94848.00
2024-04-04T08:14:58.564Z,94846.00
2024-04-04T08:15:58.577Z,94844.00
2024-04-04T08:16:58.674Z,94842.00
2024-04-04T08:17:58.595Z,94842.00
2024-04-04T08:18:58.644Z,94843.00
2024-04-04T08:19:58.758Z,94843.00
2024-04-04T08:20:58.663Z,94843.00
2024-04-04T08:21:59.187Z,94845.00
2024-04-04T08:22:58.836Z,94845.00
2024-04-04T08:23:58.891Z,94844.00
2024-04-04T08:25:00.059Z,94843.00
2024-04-04T08:25:59.625Z,94842.00
2024-04-04T08:26:59.748Z,94841.00
2024-04-04T08:27:59.190Z,94836.00
2024-04-04T08:28:59.195Z,94833.00
2024-04-04T08:29:59.310Z,94831.00
2024-04-04T08:30:59.266Z,94830.00
2024-04-04T08:31:59.259Z,94828.00
2024-04-04T08:32:59.260Z,94826.00
2024-04-04T08:33:59.328Z,94824.00
2024-04-04T08:34:59.279Z,94823.00
2024-04-04T08:35:59.325Z,94824.00
2024-04-04T08:37:00.060Z,94825.00
2024-04-04T08:37:59.345Z,94823.00
2024-04-04T08:38:59.353Z,94819.00
2024-04-04T08:39:59.356Z,94820.00
2024-04-04T08:40:59.364Z,94816.00
2024-04-04T08:41:59.365Z,94817.00
2024-04-04T08:42:59.379Z,94814.00
2024-04-04T08:43:59.597Z,94812.00
2024-04-04T08:44:59.491Z,94811.00
2024-04-04T08:45:59.603Z,94813.00
2024-04-04T08:47:00.284Z,94808.00
2024-04-04T08:47:59.737Z,94807.00
2024-04-04T08:48:59.839Z,94807.00
2024-04-04T08:50:00.160Z,94805.00
2024-04-04T08:51:02.666Z,94803.00
2024-04-04T08:52:01.461Z,94802.00
2024-04-04T08:53:00.145Z,94798.00
2024-04-04T08:54:00.116Z,94799.00
2024-04-04T08:55:02.200Z,94793.00
2024-04-04T08:56:03.149Z,94792.00
2024-04-04T08:57:01.021Z,94787.00
2024-04-04T08:58:01.168Z,94790.00
2024-04-04T08:59:00.202Z,94788.00
2024-04-04T09:00:00.233Z,94787.00
2024-04-04T09:01:05.397Z,94787.00
2024-04-04T09:02:02.195Z,94789.00
2024-04-04T09:03:00.288Z,94790.00
2024-04-04T09:04:00.238Z,94791.00
2024-04-04T09:05:00.387Z,94787.00
2024-04-04T09:06:00.202Z,94790.00
2024-04-04T09:07:02.521Z,94790.00
2024-04-04T09:08:00.245Z,94791.00
2024-04-04T09:09:05.885Z,94790.00
2024-04-04T09:10:00.545Z,94792.00
2024-04-04T09:11:01.530Z,94793.00
2024-04-04T09:12:00.535Z,94793.00
2024-04-04T09:13:03.056Z,94795.00
2024-04-04T09:14:00.717Z,94795.00
2024-04-04T09:15:10.170Z,94794.00
2024-04-04T09:16:01.735Z,94791.00
2024-04-04T09:17:01.092Z,94790.00
2024-04-04T09:18:01.735Z,94789.00
2024-04-04T09:19:04.174Z,94788.00
2024-04-04T09:20:00.838Z,94787.00
2024-04-04T09:21:00.758Z,94786.00
2024-04-04T09:22:00.928Z,94785.00
2024-04-04T09:23:01.971Z,94784.00
2024-04-04T09:24:07.579Z,94785.00
2024-04-04T09:25:08.265Z,94782.00
2024-04-04T09:26:02.682Z,94780.00
2024-04-04T09:27:00.925Z,94777.00
2024-04-04T09:28:01.743Z,94774.00
2024-04-04T09:29:00.767Z,94773.00
2024-04-04T09:30:01.191Z,94774.00
2024-04-04T09:31:01.238Z,94771.00
2024-04-04T09:32:00.798Z,94772.00
2024-04-04T09:33:00.850Z,94777.00
2024-04-04T09:34:00.757Z,94775.00
2024-04-04T09:35:01.208Z,94775.00
2024-04-04T09:36:00.774Z,94775.00
2024-04-04T09:37:00.790Z,94775.00
2024-04-04T09:38:00.895Z,94775.00
2024-04-04T09:39:00.969Z,94774.00
2024-04-04T09:40:02.289Z,94773.00
2024-04-04T09:41:02.399Z,94772.00
2024-04-04T09:42:03.716Z,94769.00
2024-04-04T09:43:02.215Z,94767.00
2024-04-04T09:44:00.856Z,94768.00
2024-04-04T09:45:00.989Z,94767.00
2024-04-04T09:46:02.131Z,94765.00
2024-04-04T09:47:00.792Z,94763.00
2024-04-04T09:48:07.174Z,94760.00
2024-04-04T09:49:00.785Z,94760.00
2024-04-04T09:50:01.809Z,94759.00
2024-04-04T09:51:02.262Z,94756.00
2024-04-04T09:52:01.360Z,94755.00
2024-04-04T09:53:00.839Z,94754.00
2024-04-04T09:54:00.826Z,94751.00
2024-04-04T09:55:01.773Z,94748.00
2024-04-04T09:56:01.221Z,94747.00
2024-04-04T09:57:00.915Z,94743.00
2024-04-04T09:58:00.944Z,94742.00
2024-04-04T09:59:00.824Z,94742.00
2024-04-04T10:00:02.602Z,94737.00
2024-04-04T10:01:00.889Z,94738.00
2024-04-04T10:02:01.407Z,94736.00
2024-04-04T10:03:11.712Z,94737.00
2024-04-04T10:04:03.722Z,94735.00
2024-04-04T10:05:00.813Z,94732.00
2024-04-04T10:06:06.285Z,94730.00
2024-04-04T10:07:01.065Z,94727.00
2024-04-04T10:08:01.264Z,94726.00
2024-04-04T10:09:02.741Z,94724.00
2024-04-04T10:10:01.051Z,94721.00
2024-04-04T10:11:01.767Z,94718.00
2024-04-04T10:12:01.054Z,94717.00
2024-04-04T10:13:01.062Z,94715.00
2024-04-04T10:14:01.190Z,94712.00
2024-04-04T10:15:01.157Z,94712.00
2024-04-04T10:16:01.962Z,94711.00
2024-04-04T10:17:01.249Z,94710.00
2024-04-04T10:18:01.985Z,94707.00
2024-04-04T10:19:01.453Z,94703.00
2024-04-04T10:20:01.250Z,94703.00
2024-04-04T10:21:01.496Z,94703.00
2024-04-04T10:22:01.851Z,94698.00
2024-04-04T10:23:01.611Z,94696.00
2024-04-04T10:24:01.607Z,94692.00
2024-04-04T10:25:01.358Z,94694.00
2024-04-04T10:26:01.363Z,94693.00
2024-04-04T10:27:02.267Z,94691.00
2024-04-04T10:28:01.564Z,94690.00
2024-04-04T10:29:07.103Z,94689.00
2024-04-04T10:30:02.482Z,94684.00
2024-04-04T10:31:01.480Z,94682.00
2024-04-04T10:32:01.797Z,94731.00
2024-04-04T10:33:01.708Z,94731.00
2024-04-04T10:34:01.494Z,94729.00
2024-04-04T10:35:01.558Z,94724.00
2024-04-04T10:36:02.040Z,94723.00
2024-04-04T10:37:01.504Z,94722.00
2024-04-04T10:38:01.511Z,94721.00
2024-04-04T10:39:01.447Z,94725.00
2024-04-04T10:40:02.488Z,94725.00
2024-04-04T10:41:02.919Z,94723.00
2024-04-04T10:42:01.455Z,94720.00
2024-04-04T10:43:01.430Z,94717.00
2024-04-04T10:44:01.466Z,94716.00
2024-04-04T10:45:01.431Z,94714.00
2024-04-04T10:46:02.259Z,94714.00
2024-04-04T10:47:01.571Z,94714.00
2024-04-04T10:48:01.483Z,94711.00
2024-04-04T10:49:01.451Z,94712.00
2024-04-04T10:50:01.637Z,94710.00
2024-04-04T10:51:02.210Z,94711.00
2024-04-04T10:52:01.743Z,94709.00
2024-04-04T10:53:01.515Z,94709.00
2024-04-04T10:54:01.480Z,94708.00
2024-04-04T10:55:02.271Z,94704.00
2024-04-04T10:56:01.535Z,94702.00
2024-04-04T10:57:01.843Z,94702.00
2024-04-04T10:58:01.784Z,94701.00
2024-04-04T10:59:01.651Z,94700.00
2024-04-04T11:00:01.659Z,94701.00
2024-04-04T11:01:01.701Z,94699.00
2024-04-04T11:02:02.254Z,94698.00
2024-04-04T11:03:02.233Z,94699.00
2024-04-04T11:04:01.775Z,94700.00
2024-04-04T11:05:02.708Z,94701.00
2024-04-04T11:06:02.695Z,94700.00
2024-04-04T11:07:01.964Z,94636.00
2024-04-04T11:08:02.197Z,94636.00
2024-04-04T11:09:01.981Z,94632.00
2024-04-04T11:10:01.936Z,94631.00
2024-04-04T11:11:02.013Z,94631.00
2024-04-04T11:12:02.017Z,94630.00
2024-04-04T11:13:02.071Z,94630.00
2024-04-04T11:14:02.071Z,94626.00
2024-04-04T11:15:02.165Z,94628.00
2024-04-04T11:16:02.167Z,94625.00
2024-04-04T11:17:02.322Z,94622.00
2024-04-04T11:18:02.336Z,94622.00
2024-04-04T11:19:02.249Z,94621.00
2024-04-04T11:20:02.255Z,94622.00
2024-04-04T11:21:02.308Z,94620.00
2024-04-04T11:22:02.721Z,94619.00
2024-04-04T11:23:02.368Z,94617.00
2024-04-04T11:24:02.412Z,94615.00
2024-04-04T11:25:02.455Z,94610.00
2024-04-04T11:26:02.497Z,94612.00
2024-04-04T11:27:02.515Z,94608.00
2024-04-04T11:28:02.549Z,94611.00
2024-04-04T11:29:02.557Z,94608.00
2024-04-04T11:30:02.586Z,94614.00
2024-04-04T11:31:02.594Z,94611.00
2024-04-04T11:32:03.245Z,94610.00
2024-04-04T11:33:05.311Z,94608.00
2024-04-04T11:34:02.749Z,94611.00
2024-04-04T11:35:02.683Z,94607.00
2024-04-04T11:36:03.276Z,94608.00
2024-04-04T11:37:02.780Z,94608.00
2024-04-04T11:38:02.636Z,94607.00
2024-04-04T11:39:02.683Z,94607.00
2024-04-04T11:40:02.691Z,94604.00
2024-04-04T11:41:02.743Z,94602.00
2024-04-04T11:42:02.944Z,94599.00
2024-04-04T11:43:02.805Z,94597.00
2024-04-04T11:44:02.719Z,94599.00
2024-04-04T11:45:02.619Z,94605.00
2024-04-04T11:46:02.693Z,94604.00
2024-04-04T11:47:02.632Z,94607.00